sensor_id;sensor_type;location;lat;lon;timestamp;P1;durP1;ratioP1;P2;durP2;ratioP2
73266;SDS011;61495;53.400;7.608;2023-09-18T00:00:27;12.23;;;10.18;;
73266;SDS011;61495;53.400;7.608;2023-09-18T00:02:53;13.70;;;10.63;;
73266;SDS011;61495;53.400;7.608;2023-09-18T00:05:18;10.18;;;8.20;;
73266;SDS011;61495;53.400;7.608;2023-09-18T00:07:44;14.70;;;8.48;;
73266;SDS011;61495;53.400;7.608;2023-09-18T00:10:10;9.90;;;7.82;;
73266;SDS011;61495;53.400;7.608;2023-09-18T00:12:36;12.05;;;9.57;;
73266;SDS011;61495;53.400;7.608;2023-09-18T00:15:02;10.95;;;9.02;;
73266;SDS011;61495;53.400;7.608;2023-09-18T00:17:28;12.98;;;10.43;;
73266;SDS011;61495;53.400;7.608;2023-09-18T00:19:54;12.05;;;8.90;;
73266;SDS011;61495;53.400;7.608;2023-09-18T00:22:19;12.85;;;10.18;;
73266;SDS011;61495;53.400;7.608;2023-09-18T00:24:46;10.40;;;7.85;;
73266;SDS011;61495;53.400;7.608;2023-09-18T00:27:11;7.45;;;6.35;;
73266;SDS011;61495;53.400;7.608;2023-09-18T00:29:36;7.22;;;5.45;;
73266;SDS011;61495;53.400;7.608;2023-09-18T00:32:02;7.03;;;6.28;;
73266;SDS011;61495;53.400;7.608;2023-09-18T00:34:29;7.57;;;6.28;;
73266;SDS011;61495;53.400;7.608;2023-09-18T00:36:54;9.07;;;7.40;;
73266;SDS011;61495;53.400;7.608;2023-09-18T00:39:20;13.93;;;9.63;;
73266;SDS011;61495;53.400;7.608;2023-09-18T00:41:45;12.23;;;9.85;;
73266;SDS011;61495;53.400;7.608;2023-09-18T00:44:14;12.95;;;9.38;;
73266;SDS011;61495;53.400;7.608;2023-09-18T00:46:40;16.13;;;11.25;;
73266;SDS011;61495;53.400;7.608;2023-09-18T00:49:05;13.20;;;10.77;;
73266;SDS011;61495;53.400;7.608;2023-09-18T00:51:31;12.27;;;9.80;;
73266;SDS011;61495;53.400;7.608;2023-09-18T00:53:57;12.35;;;10.23;;
73266;SDS011;61495;53.400;7.608;2023-09-18T00:56:24;15.85;;;10.70;;
73266;SDS011;61495;53.400;7.608;2023-09-18T00:58:50;14.85;;;11.40;;
73266;SDS011;61495;53.400;7.608;2023-09-18T01:01:17;15.95;;;12.38;;
73266;SDS011;61495;53.400;7.608;2023-09-18T01:03:48;16.33;;;12.23;;
73266;SDS011;61495;53.400;7.608;2023-09-18T01:06:16;15.32;;;11.30;;
73266;SDS011;61495;53.400;7.608;2023-09-18T01:08:43;13.10;;;10.55;;
73266;SDS011;61495;53.400;7.608;2023-09-18T01:13:54;13.95;;;10.85;;
73266;SDS011;61495;53.400;7.608;2023-09-18T01:16:41;16.55;;;12.25;;
73266;SDS011;61495;53.400;7.608;2023-09-18T01:19:14;15.90;;;11.95;;
73266;SDS011;61495;53.400;7.608;2023-09-18T01:21:40;20.00;;;12.43;;
73266;SDS011;61495;53.400;7.608;2023-09-18T01:24:06;15.30;;;11.38;;
73266;SDS011;61495;53.400;7.608;2023-09-18T01:26:31;15.95;;;12.98;;
73266;SDS011;61495;53.400;7.608;2023-09-18T01:28:57;17.33;;;12.52;;
73266;SDS011;61495;53.400;7.608;2023-09-18T01:31:22;15.90;;;12.45;;
73266;SDS011;61495;53.400;7.608;2023-09-18T01:33:47;18.25;;;13.00;;
73266;SDS011;61495;53.400;7.608;2023-09-18T01:36:15;16.67;;;12.43;;
73266;SDS011;61495;53.400;7.608;2023-09-18T01:38:51;18.02;;;14.43;;
73266;SDS011;61495;53.400;7.608;2023-09-18T01:41:45;16.10;;;12.70;;
73266;SDS011;61495;53.400;7.608;2023-09-18T01:44:31;15.75;;;13.40;;
73266;SDS011;61495;53.400;7.608;2023-09-18T01:47:18;16.42;;;13.32;;
73266;SDS011;61495;53.400;7.608;2023-09-18T01:50:07;16.10;;;13.90;;
73266;SDS011;61495;53.400;7.608;2023-09-18T01:52:51;18.10;;;12.07;;
73266;SDS011;61495;53.400;7.608;2023-09-18T01:55:28;16.15;;;12.32;;
73266;SDS011;61495;53.400;7.608;2023-09-18T01:58:02;16.38;;;12.27;;
73266;SDS011;61495;53.400;7.608;2023-09-18T02:00:28;16.10;;;12.90;;
73266;SDS011;61495;53.400;7.608;2023-09-18T02:02:53;14.85;;;11.90;;
73266;SDS011;61495;53.400;7.608;2023-09-18T02:05:18;18.17;;;11.88;;
73266;SDS011;61495;53.400;7.608;2023-09-18T02:07:44;17.23;;;12.40;;
73266;SDS011;61495;53.400;7.608;2023-09-18T02:10:09;13.45;;;11.40;;
73266;SDS011;61495;53.400;7.608;2023-09-18T02:12:37;14.88;;;12.02;;
73266;SDS011;61495;53.400;7.608;2023-09-18T02:15:04;19.42;;;13.80;;
73266;SDS011;61495;53.400;7.608;2023-09-18T02:17:31;16.88;;;13.45;;
73266;SDS011;61495;53.400;7.608;2023-09-18T02:19:57;18.35;;;13.50;;
73266;SDS011;61495;53.400;7.608;2023-09-18T02:22:22;17.30;;;12.50;;
73266;SDS011;61495;53.400;7.608;2023-09-18T02:24:48;16.67;;;13.15;;
73266;SDS011;61495;53.400;7.608;2023-09-18T02:27:13;17.75;;;14.25;;
73266;SDS011;61495;53.400;7.608;2023-09-18T02:29:38;16.05;;;12.65;;
73266;SDS011;61495;53.400;7.608;2023-09-18T02:32:04;20.05;;;13.82;;
73266;SDS011;61495;53.400;7.608;2023-09-18T02:34:29;18.75;;;14.73;;
73266;SDS011;61495;53.400;7.608;2023-09-18T02:36:55;19.52;;;15.05;;
73266;SDS011;61495;53.400;7.608;2023-09-18T02:39:20;18.02;;;14.20;;
73266;SDS011;61495;53.400;7.608;2023-09-18T02:41:46;19.23;;;15.10;;
73266;SDS011;61495;53.400;7.608;2023-09-18T02:44:11;18.88;;;13.07;;
73266;SDS011;61495;53.400;7.608;2023-09-18T02:46:37;20.42;;;15.63;;
73266;SDS011;61495;53.400;7.608;2023-09-18T02:49:03;21.70;;;15.65;;
73266;SDS011;61495;53.400;7.608;2023-09-18T02:51:29;19.85;;;14.80;;
73266;SDS011;61495;53.400;7.608;2023-09-18T02:53:57;19.38;;;14.60;;
73266;SDS011;61495;53.400;7.608;2023-09-18T02:56:22;19.65;;;13.85;;
73266;SDS011;61495;53.400;7.608;2023-09-18T02:58:48;18.95;;;14.15;;
73266;SDS011;61495;53.400;7.608;2023-09-18T03:01:13;20.00;;;14.73;;
73266;SDS011;61495;53.400;7.608;2023-09-18T03:03:39;20.10;;;15.15;;
73266;SDS011;61495;53.400;7.608;2023-09-18T03:06:06;18.95;;;15.52;;
73266;SDS011;61495;53.400;7.608;2023-09-18T03:08:32;20.95;;;14.15;;
73266;SDS011;61495;53.400;7.608;2023-09-18T03:10:58;16.65;;;13.57;;
73266;SDS011;61495;53.400;7.608;2023-09-18T03:13:25;20.25;;;14.60;;
73266;SDS011;61495;53.400;7.608;2023-09-18T03:15:52;18.98;;;14.75;;
73266;SDS011;61495;53.400;7.608;2023-09-18T03:18:17;18.85;;;14.00;;
73266;SDS011;61495;53.400;7.608;2023-09-18T03:20:42;21.10;;;15.05;;
73266;SDS011;61495;53.400;7.608;2023-09-18T03:23:08;17.67;;;12.95;;
73266;SDS011;61495;53.400;7.608;2023-09-18T03:25:35;19.10;;;12.95;;
73266;SDS011;61495;53.400;7.608;2023-09-18T03:28:02;16.98;;;13.15;;
73266;SDS011;61495;53.400;7.608;2023-09-18T03:30:28;18.98;;;13.25;;
73266;SDS011;61495;53.400;7.608;2023-09-18T03:32:53;19.20;;;14.10;;
73266;SDS011;61495;53.400;7.608;2023-09-18T03:35:19;17.60;;;12.63;;
73266;SDS011;61495;53.400;7.608;2023-09-18T03:37:46;18.77;;;13.10;;
73266;SDS011;61495;53.400;7.608;2023-09-18T03:40:13;19.67;;;13.60;;
73266;SDS011;61495;53.400;7.608;2023-09-18T03:42:39;17.23;;;12.95;;
73266;SDS011;61495;53.400;7.608;2023-09-18T03:45:07;15.07;;;11.35;;
73266;SDS011;61495;53.400;7.608;2023-09-18T03:47:34;16.23;;;11.75;;
73266;SDS011;61495;53.400;7.608;2023-09-18T03:50:01;15.95;;;12.18;;
73266;SDS011;61495;53.400;7.608;2023-09-18T03:52:27;20.38;;;12.85;;
73266;SDS011;61495;53.400;7.608;2023-09-18T03:54:52;18.92;;;12.65;;
73266;SDS011;61495;53.400;7.608;2023-09-18T03:57:18;18.30;;;12.85;;
73266;SDS011;61495;53.400;7.608;2023-09-18T03:59:43;16.63;;;12.10;;
73266;SDS011;61495;53.400;7.608;2023-09-18T04:02:08;15.98;;;11.45;;
73266;SDS011;61495;53.400;7.608;2023-09-18T04:04:34;15.80;;;11.75;;
73266;SDS011;61495;53.400;7.608;2023-09-18T04:06:59;16.73;;;11.13;;
73266;SDS011;61495;53.400;7.608;2023-09-18T04:09:25;16.20;;;11.27;;
73266;SDS011;61495;53.400;7.608;2023-09-18T04:11:50;16.15;;;11.63;;
73266;SDS011;61495;53.400;7.608;2023-09-18T04:14:16;15.18;;;11.05;;
73266;SDS011;61495;53.400;7.608;2023-09-18T04:16:41;15.88;;;10.68;;
73266;SDS011;61495;53.400;7.608;2023-09-18T04:19:08;15.57;;;11.00;;
73266;SDS011;61495;53.400;7.608;2023-09-18T04:21:34;17.23;;;11.85;;
73266;SDS011;61495;53.400;7.608;2023-09-18T04:24:00;15.10;;;10.80;;
73266;SDS011;61495;53.400;7.608;2023-09-18T04:26:26;16.48;;;10.98;;
73266;SDS011;61495;53.400;7.608;2023-09-18T04:28:56;14.25;;;10.18;;
73266;SDS011;61495;53.400;7.608;2023-09-18T04:31:22;14.85;;;10.68;;
73266;SDS011;61495;53.400;7.608;2023-09-18T04:33:48;15.82;;;10.25;;
73266;SDS011;61495;53.400;7.608;2023-09-18T04:36:13;15.90;;;11.07;;
73266;SDS011;61495;53.400;7.608;2023-09-18T04:38:39;15.73;;;10.57;;
73266;SDS011;61495;53.400;7.608;2023-09-18T04:41:04;18.15;;;11.07;;
73266;SDS011;61495;53.400;7.608;2023-09-18T04:43:33;16.38;;;10.25;;
73266;SDS011;61495;53.400;7.608;2023-09-18T04:45:59;14.75;;;10.32;;
73266;SDS011;61495;53.400;7.608;2023-09-18T04:48:25;13.93;;;10.38;;
73266;SDS011;61495;53.400;7.608;2023-09-18T04:50:50;14.07;;;9.68;;
73266;SDS011;61495;53.400;7.608;2023-09-18T04:53:16;16.83;;;10.95;;
73266;SDS011;61495;53.400;7.608;2023-09-18T04:55:41;14.77;;;10.90;;
73266;SDS011;61495;53.400;7.608;2023-09-18T04:58:06;13.27;;;9.90;;
73266;SDS011;61495;53.400;7.608;2023-09-18T05:00:32;14.32;;;10.02;;
73266;SDS011;61495;53.400;7.608;2023-09-18T05:02:58;13.77;;;10.10;;
73266;SDS011;61495;53.400;7.608;2023-09-18T05:05:26;14.27;;;9.50;;
73266;SDS011;61495;53.400;7.608;2023-09-18T05:07:52;14.85;;;10.27;;
73266;SDS011;61495;53.400;7.608;2023-09-18T05:10:18;15.93;;;10.82;;
73266;SDS011;61495;53.400;7.608;2023-09-18T05:12:43;16.13;;;10.73;;
73266;SDS011;61495;53.400;7.608;2023-09-18T05:15:09;16.48;;;11.90;;
73266;SDS011;61495;53.400;7.608;2023-09-18T05:20:17;17.10;;;12.15;;
73266;SDS011;61495;53.400;7.608;2023-09-18T05:22:43;17.17;;;11.27;;
73266;SDS011;61495;53.400;7.608;2023-09-18T05:25:09;15.93;;;11.13;;
73266;SDS011;61495;53.400;7.608;2023-09-18T05:27:35;14.20;;;10.35;;
73266;SDS011;61495;53.400;7.608;2023-09-18T05:30:09;18.17;;;12.07;;
73266;SDS011;61495;53.400;7.608;2023-09-18T05:32:38;14.38;;;10.85;;
73266;SDS011;61495;53.400;7.608;2023-09-18T05:35:04;15.38;;;10.32;;
73266;SDS011;61495;53.400;7.608;2023-09-18T05:37:31;14.85;;;9.75;;
73266;SDS011;61495;53.400;7.608;2023-09-18T05:39:58;16.30;;;9.75;;
73266;SDS011;61495;53.400;7.608;2023-09-18T05:42:23;13.60;;;9.75;;
73266;SDS011;61495;53.400;7.608;2023-09-18T05:44:49;12.48;;;8.27;;
73266;SDS011;61495;53.400;7.608;2023-09-18T05:47:14;12.40;;;8.45;;
73266;SDS011;61495;53.400;7.608;2023-09-18T05:49:39;14.25;;;9.10;;
73266;SDS011;61495;53.400;7.608;2023-09-18T05:52:05;11.88;;;7.57;;
73266;SDS011;61495;53.400;7.608;2023-09-18T05:54:30;13.43;;;8.80;;
73266;SDS011;61495;53.400;7.608;2023-09-18T05:56:55;11.18;;;7.22;;
73266;SDS011;61495;53.400;7.608;2023-09-18T05:59:21;14.90;;;9.48;;
73266;SDS011;61495;53.400;7.608;2023-09-18T06:01:46;12.48;;;7.45;;
73266;SDS011;61495;53.400;7.608;2023-09-18T06:04:14;14.77;;;7.43;;
73266;SDS011;61495;53.400;7.608;2023-09-18T06:06:39;10.20;;;7.40;;
73266;SDS011;61495;53.400;7.608;2023-09-18T06:09:05;10.45;;;7.03;;
73266;SDS011;61495;53.400;7.608;2023-09-18T06:11:30;10.10;;;6.72;;
73266;SDS011;61495;53.400;7.608;2023-09-18T06:13:56;12.93;;;6.43;;
73266;SDS011;61495;53.400;7.608;2023-09-18T06:16:22;10.80;;;6.78;;
73266;SDS011;61495;53.400;7.608;2023-09-18T06:18:47;11.65;;;6.78;;
73266;SDS011;61495;53.400;7.608;2023-09-18T06:21:12;11.98;;;7.35;;
73266;SDS011;61495;53.400;7.608;2023-09-18T06:23:38;10.98;;;6.90;;
73266;SDS011;61495;53.400;7.608;2023-09-18T06:26:03;11.13;;;6.72;;
73266;SDS011;61495;53.400;7.608;2023-09-18T06:28:29;9.52;;;6.80;;
73266;SDS011;61495;53.400;7.608;2023-09-18T06:30:55;10.23;;;6.03;;
73266;SDS011;61495;53.400;7.608;2023-09-18T06:33:21;10.05;;;6.13;;
73266;SDS011;61495;53.400;7.608;2023-09-18T06:35:46;12.25;;;6.32;;
73266;SDS011;61495;53.400;7.608;2023-09-18T06:38:13;9.13;;;6.75;;
73266;SDS011;61495;53.400;7.608;2023-09-18T06:40:40;8.68;;;6.22;;
73266;SDS011;61495;53.400;7.608;2023-09-18T06:43:06;9.98;;;6.13;;
73266;SDS011;61495;53.400;7.608;2023-09-18T06:45:31;9.82;;;6.22;;
73266;SDS011;61495;53.400;7.608;2023-09-18T06:47:58;11.25;;;6.70;;
73266;SDS011;61495;53.400;7.608;2023-09-18T06:50:25;9.57;;;6.38;;
73266;SDS011;61495;53.400;7.608;2023-09-18T06:52:50;12.50;;;7.18;;
73266;SDS011;61495;53.400;7.608;2023-09-18T06:55:16;9.55;;;6.70;;
73266;SDS011;61495;53.400;7.608;2023-09-18T06:57:42;8.60;;;6.07;;
73266;SDS011;61495;53.400;7.608;2023-09-18T07:00:07;12.45;;;6.72;;
73266;SDS011;61495;53.400;7.608;2023-09-18T07:02:33;9.75;;;5.63;;
73266;SDS011;61495;53.400;7.608;2023-09-18T07:04:59;9.18;;;5.95;;
73266;SDS011;61495;53.400;7.608;2023-09-18T07:07:24;12.80;;;6.18;;
73266;SDS011;61495;53.400;7.608;2023-09-18T07:09:52;7.82;;;5.40;;
73266;SDS011;61495;53.400;7.608;2023-09-18T07:12:17;9.23;;;5.78;;
73266;SDS011;61495;53.400;7.608;2023-09-18T07:14:46;9.27;;;6.07;;
73266;SDS011;61495;53.400;7.608;2023-09-18T07:17:12;8.98;;;5.93;;
73266;SDS011;61495;53.400;7.608;2023-09-18T07:19:37;9.90;;;5.80;;
73266;SDS011;61495;53.400;7.608;2023-09-18T07:22:02;9.80;;;6.57;;
73266;SDS011;61495;53.400;7.608;2023-09-18T07:24:28;8.13;;;4.75;;
73266;SDS011;61495;53.400;7.608;2023-09-18T07:26:53;9.75;;;5.88;;
73266;SDS011;61495;53.400;7.608;2023-09-18T07:29:20;11.15;;;5.93;;
73266;SDS011;61495;53.400;7.608;2023-09-18T07:31:46;9.82;;;5.53;;
73266;SDS011;61495;53.400;7.608;2023-09-18T07:34:12;9.60;;;6.47;;
73266;SDS011;61495;53.400;7.608;2023-09-18T07:36:39;12.90;;;6.30;;
73266;SDS011;61495;53.400;7.608;2023-09-18T07:39:04;11.60;;;6.97;;
73266;SDS011;61495;53.400;7.608;2023-09-18T07:41:31;10.23;;;5.72;;
73266;SDS011;61495;53.400;7.608;2023-09-18T07:43:57;11.77;;;6.00;;
73266;SDS011;61495;53.400;7.608;2023-09-18T07:46:24;10.70;;;5.50;;
73266;SDS011;61495;53.400;7.608;2023-09-18T07:48:50;11.13;;;5.70;;
73266;SDS011;61495;53.400;7.608;2023-09-18T07:51:15;8.85;;;5.75;;
73266;SDS011;61495;53.400;7.608;2023-09-18T07:53:43;10.18;;;7.30;;
73266;SDS011;61495;53.400;7.608;2023-09-18T07:56:09;12.52;;;5.85;;
73266;SDS011;61495;53.400;7.608;2023-09-18T07:58:35;12.63;;;6.05;;
73266;SDS011;61495;53.400;7.608;2023-09-18T08:01:03;10.82;;;5.63;;
73266;SDS011;61495;53.400;7.608;2023-09-18T08:03:30;11.77;;;6.07;;
73266;SDS011;61495;53.400;7.608;2023-09-18T08:05:55;9.82;;;5.10;;
73266;SDS011;61495;53.400;7.608;2023-09-18T08:08:21;12.07;;;6.55;;
73266;SDS011;61495;53.400;7.608;2023-09-18T08:10:50;10.77;;;5.75;;
73266;SDS011;61495;53.400;7.608;2023-09-18T08:13:16;11.13;;;5.85;;
73266;SDS011;61495;53.400;7.608;2023-09-18T08:15:42;9.45;;;5.85;;
73266;SDS011;61495;53.400;7.608;2023-09-18T08:18:08;12.40;;;6.25;;
73266;SDS011;61495;53.400;7.608;2023-09-18T08:20:34;11.35;;;6.15;;
73266;SDS011;61495;53.400;7.608;2023-09-18T08:23:02;11.63;;;6.78;;
73266;SDS011;61495;53.400;7.608;2023-09-18T08:25:30;13.02;;;7.20;;
73266;SDS011;61495;53.400;7.608;2023-09-18T08:27:56;11.30;;;6.50;;
73266;SDS011;61495;53.400;7.608;2023-09-18T08:30:21;18.52;;;7.85;;
73266;SDS011;61495;53.400;7.608;2023-09-18T08:32:47;14.90;;;8.50;;
73266;SDS011;61495;53.400;7.608;2023-09-18T08:35:13;12.90;;;6.45;;
73266;SDS011;61495;53.400;7.608;2023-09-18T08:37:40;13.10;;;7.05;;
73266;SDS011;61495;53.400;7.608;2023-09-18T08:40:07;11.07;;;6.32;;
73266;SDS011;61495;53.400;7.608;2023-09-18T08:42:35;12.73;;;6.80;;
73266;SDS011;61495;53.400;7.608;2023-09-18T08:45:05;11.60;;;7.50;;
73266;SDS011;61495;53.400;7.608;2023-09-18T08:47:34;10.77;;;6.38;;
73266;SDS011;61495;53.400;7.608;2023-09-18T08:50:00;12.45;;;7.43;;
73266;SDS011;61495;53.400;7.608;2023-09-18T08:52:26;14.98;;;8.52;;
73266;SDS011;61495;53.400;7.608;2023-09-18T08:54:53;12.60;;;7.40;;
73266;SDS011;61495;53.400;7.608;2023-09-18T08:57:21;16.48;;;7.68;;
73266;SDS011;61495;53.400;7.608;2023-09-18T08:59:46;16.45;;;7.03;;
73266;SDS011;61495;53.400;7.608;2023-09-18T09:02:15;13.55;;;7.68;;
73266;SDS011;61495;53.400;7.608;2023-09-18T09:04:40;13.93;;;8.65;;
73266;SDS011;61495;53.400;7.608;2023-09-18T09:07:06;12.73;;;7.57;;
73266;SDS011;61495;53.400;7.608;2023-09-18T09:09:31;17.95;;;8.23;;
73266;SDS011;61495;53.400;7.608;2023-09-18T09:11:57;11.00;;;7.60;;
73266;SDS011;61495;53.400;7.608;2023-09-18T09:14:22;14.30;;;8.93;;
73266;SDS011;61495;53.400;7.608;2023-09-18T09:16:53;11.57;;;8.13;;
73266;SDS011;61495;53.400;7.608;2023-09-18T09:19:27;11.38;;;6.65;;
73266;SDS011;61495;53.400;7.608;2023-09-18T09:21:55;12.10;;;7.22;;
73266;SDS011;61495;53.400;7.608;2023-09-18T09:24:40;11.48;;;6.55;;
73266;SDS011;61495;53.400;7.608;2023-09-18T09:27:07;9.20;;;6.63;;
73266;SDS011;61495;53.400;7.608;2023-09-18T09:29:33;9.50;;;6.85;;
73266;SDS011;61495;53.400;7.608;2023-09-18T09:32:12;10.07;;;6.85;;
73266;SDS011;61495;53.400;7.608;2023-09-18T09:34:40;14.57;;;7.07;;
73266;SDS011;61495;53.400;7.608;2023-09-18T09:37:06;11.18;;;6.15;;
73266;SDS011;61495;53.400;7.608;2023-09-18T09:39:32;9.45;;;6.15;;
73266;SDS011;61495;53.400;7.608;2023-09-18T09:42:02;8.52;;;5.95;;
73266;SDS011;61495;53.400;7.608;2023-09-18T09:44:31;11.88;;;6.35;;
73266;SDS011;61495;53.400;7.608;2023-09-18T09:46:57;9.75;;;5.80;;
73266;SDS011;61495;53.400;7.608;2023-09-18T09:49:24;11.27;;;6.03;;
73266;SDS011;61495;53.400;7.608;2023-09-18T09:51:52;11.13;;;6.18;;
73266;SDS011;61495;53.400;7.608;2023-09-18T09:54:40;11.43;;;6.72;;
73266;SDS011;61495;53.400;7.608;2023-09-18T09:57:06;10.40;;;6.50;;
73266;SDS011;61495;53.400;7.608;2023-09-18T09:59:31;9.32;;;6.22;;
73266;SDS011;61495;53.400;7.608;2023-09-18T10:02:00;10.00;;;6.63;;
73266;SDS011;61495;53.400;7.608;2023-09-18T10:04:26;8.60;;;5.93;;
73266;SDS011;61495;53.400;7.608;2023-09-18T10:06:58;11.65;;;6.95;;
73266;SDS011;61495;53.400;7.608;2023-09-18T10:09:30;10.38;;;7.38;;
73266;SDS011;61495;53.400;7.608;2023-09-18T10:11:59;12.07;;;6.93;;
73266;SDS011;61495;53.400;7.608;2023-09-18T10:14:30;9.65;;;6.65;;
73266;SDS011;61495;53.400;7.608;2023-09-18T10:16:57;10.32;;;6.93;;
73266;SDS011;61495;53.400;7.608;2023-09-18T10:24:38;10.77;;;7.05;;
73266;SDS011;61495;53.400;7.608;2023-09-18T10:27:06;12.98;;;7.47;;
73266;SDS011;61495;53.400;7.608;2023-09-18T10:29:34;11.90;;;7.50;;
73266;SDS011;61495;53.400;7.608;2023-09-18T10:32:05;10.15;;;6.95;;
73266;SDS011;61495;53.400;7.608;2023-09-18T10:34:33;13.70;;;7.80;;
73266;SDS011;61495;53.400;7.608;2023-09-18T10:36:59;16.27;;;8.98;;
73266;SDS011;61495;53.400;7.608;2023-09-18T10:41:55;17.05;;;8.13;;
73266;SDS011;61495;53.400;7.608;2023-09-18T10:44:22;14.90;;;8.52;;
73266;SDS011;61495;53.400;7.608;2023-09-18T10:46:49;12.35;;;7.95;;
73266;SDS011;61495;53.400;7.608;2023-09-18T10:49:16;16.80;;;8.15;;
73266;SDS011;61495;53.400;7.608;2023-09-18T10:51:43;11.73;;;8.15;;
73266;SDS011;61495;53.400;7.608;2023-09-18T10:54:11;14.15;;;8.25;;
73266;SDS011;61495;53.400;7.608;2023-09-18T10:56:43;13.43;;;7.90;;
73266;SDS011;61495;53.400;7.608;2023-09-18T10:59:10;14.88;;;7.88;;
73266;SDS011;61495;53.400;7.608;2023-09-18T11:01:35;15.68;;;9.27;;
73266;SDS011;61495;53.400;7.608;2023-09-18T11:04:03;13.70;;;8.18;;
73266;SDS011;61495;53.400;7.608;2023-09-18T11:06:49;14.10;;;8.82;;
73266;SDS011;61495;53.400;7.608;2023-09-18T11:09:23;12.20;;;7.85;;
73266;SDS011;61495;53.400;7.608;2023-09-18T11:11:52;12.52;;;7.70;;
73266;SDS011;61495;53.400;7.608;2023-09-18T11:14:22;12.18;;;8.25;;
73266;SDS011;61495;53.400;7.608;2023-09-18T11:16:49;11.30;;;6.95;;
73266;SDS011;61495;53.400;7.608;2023-09-18T11:19:18;11.88;;;7.32;;
73266;SDS011;61495;53.400;7.608;2023-09-18T11:21:47;10.88;;;7.00;;
73266;SDS011;61495;53.400;7.608;2023-09-18T11:26:43;10.98;;;6.82;;
73266;SDS011;61495;53.400;7.608;2023-09-18T11:29:11;14.05;;;7.95;;
73266;SDS011;61495;53.400;7.608;2023-09-18T11:34:23;12.48;;;7.88;;
73266;SDS011;61495;53.400;7.608;2023-09-18T11:36:51;11.05;;;7.30;;
73266;SDS011;61495;53.400;7.608;2023-09-18T11:42:07;9.65;;;6.78;;
73266;SDS011;61495;53.400;7.608;2023-09-18T11:44:35;9.25;;;6.93;;
73266;SDS011;61495;53.400;7.608;2023-09-18T11:47:06;9.65;;;6.43;;
73266;SDS011;61495;53.400;7.608;2023-09-18T11:49:33;9.85;;;6.80;;
73266;SDS011;61495;53.400;7.608;2023-09-18T11:52:00;10.63;;;6.43;;
73266;SDS011;61495;53.400;7.608;2023-09-18T11:54:30;8.88;;;6.80;;
73266;SDS011;61495;53.400;7.608;2023-09-18T11:57:02;11.23;;;6.80;;
73266;SDS011;61495;53.400;7.608;2023-09-18T11:59:36;9.70;;;5.78;;
73266;SDS011;61495;53.400;7.608;2023-09-18T12:02:04;9.15;;;6.60;;
73266;SDS011;61495;53.400;7.608;2023-09-18T12:04:31;11.50;;;6.93;;
73266;SDS011;61495;53.400;7.608;2023-09-18T12:06:58;7.82;;;5.45;;
73266;SDS011;61495;53.400;7.608;2023-09-18T12:09:28;9.38;;;5.00;;
73266;SDS011;61495;53.400;7.608;2023-09-18T12:11:56;7.72;;;4.85;;
73266;SDS011;61495;53.400;7.608;2023-09-18T12:14:23;7.75;;;4.70;;
73266;SDS011;61495;53.400;7.608;2023-09-18T12:16:49;10.85;;;6.45;;
73266;SDS011;61495;53.400;7.608;2023-09-18T12:19:17;8.88;;;4.55;;
73266;SDS011;61495;53.400;7.608;2023-09-18T12:21:45;6.63;;;4.43;;
73266;SDS011;61495;53.400;7.608;2023-09-18T12:24:15;7.75;;;3.95;;
73266;SDS011;61495;53.400;7.608;2023-09-18T12:26:46;7.82;;;4.10;;
73266;SDS011;61495;53.400;7.608;2023-09-18T12:29:12;8.98;;;4.85;;
73266;SDS011;61495;53.400;7.608;2023-09-18T12:31:37;8.43;;;4.57;;
73266;SDS011;61495;53.400;7.608;2023-09-18T12:34:03;6.55;;;3.95;;
73266;SDS011;61495;53.400;7.608;2023-09-18T12:36:32;7.38;;;3.92;;
73266;SDS011;61495;53.400;7.608;2023-09-18T12:38:58;6.60;;;2.97;;
73266;SDS011;61495;53.400;7.608;2023-09-18T12:41:25;8.05;;;3.50;;
73266;SDS011;61495;53.400;7.608;2023-09-18T12:43:51;7.30;;;3.60;;
73266;SDS011;61495;53.400;7.608;2023-09-18T12:46:19;5.03;;;3.20;;
73266;SDS011;61495;53.400;7.608;2023-09-18T12:48:47;7.25;;;3.50;;
73266;SDS011;61495;53.400;7.608;2023-09-18T12:51:13;8.13;;;3.15;;
73266;SDS011;61495;53.400;7.608;2023-09-18T12:53:39;4.88;;;3.10;;
73266;SDS011;61495;53.400;7.608;2023-09-18T12:56:13;5.90;;;3.13;;
73266;SDS011;61495;53.400;7.608;2023-09-18T12:58:39;4.93;;;3.00;;
73266;SDS011;61495;53.400;7.608;2023-09-18T13:01:09;5.88;;;3.20;;
73266;SDS011;61495;53.400;7.608;2023-09-18T13:03:45;4.53;;;3.20;;
73266;SDS011;61495;53.400;7.608;2023-09-18T13:06:18;5.60;;;3.33;;
73266;SDS011;61495;53.400;7.608;2023-09-18T13:08:44;5.00;;;3.28;;
73266;SDS011;61495;53.400;7.608;2023-09-18T13:11:11;6.22;;;3.28;;
73266;SDS011;61495;53.400;7.608;2023-09-18T13:13:39;5.20;;;3.03;;
73266;SDS011;61495;53.400;7.608;2023-09-18T13:16:05;4.38;;;2.95;;
73266;SDS011;61495;53.400;7.608;2023-09-18T13:18:31;5.35;;;2.75;;
73266;SDS011;61495;53.400;7.608;2023-09-18T13:20:57;4.47;;;2.40;;
73266;SDS011;61495;53.400;7.608;2023-09-18T13:23:30;6.38;;;2.60;;
73266;SDS011;61495;53.400;7.608;2023-09-18T13:25:59;4.55;;;2.10;;
73266;SDS011;61495;53.400;7.608;2023-09-18T13:28:26;4.70;;;2.55;;
73266;SDS011;61495;53.400;7.608;2023-09-18T13:30:52;4.60;;;2.17;;
73266;SDS011;61495;53.400;7.608;2023-09-18T13:33:17;4.88;;;2.67;;
73266;SDS011;61495;53.400;7.608;2023-09-18T13:35:44;3.47;;;2.50;;
73266;SDS011;61495;53.400;7.608;2023-09-18T13:38:10;6.80;;;2.72;;
73266;SDS011;61495;53.400;7.608;2023-09-18T13:40:37;5.22;;;2.25;;
73266;SDS011;61495;53.400;7.608;2023-09-18T13:43:04;4.38;;;2.05;;
73266;SDS011;61495;53.400;7.608;2023-09-18T13:45:31;5.20;;;2.30;;
73266;SDS011;61495;53.400;7.608;2023-09-18T13:47:57;4.82;;;2.08;;
73266;SDS011;61495;53.400;7.608;2023-09-18T13:50:22;4.45;;;2.30;;
73266;SDS011;61495;53.400;7.608;2023-09-18T13:52:48;6.37;;;2.03;;
73266;SDS011;61495;53.400;7.608;2023-09-18T13:55:13;4.50;;;2.40;;
73266;SDS011;61495;53.400;7.608;2023-09-18T13:57:39;4.20;;;2.33;;
73266;SDS011;61495;53.400;7.608;2023-09-18T14:00:07;4.70;;;2.35;;
73266;SDS011;61495;53.400;7.608;2023-09-18T14:02:36;6.50;;;3.00;;
73266;SDS011;61495;53.400;7.608;2023-09-18T14:05:01;7.72;;;2.90;;
73266;SDS011;61495;53.400;7.608;2023-09-18T14:07:28;7.57;;;2.90;;
73266;SDS011;61495;53.400;7.608;2023-09-18T14:09:54;5.93;;;2.42;;
73266;SDS011;61495;53.400;7.608;2023-09-18T14:12:20;6.55;;;2.47;;
73266;SDS011;61495;53.400;7.608;2023-09-18T14:14:45;5.57;;;2.28;;
73266;SDS011;61495;53.400;7.608;2023-09-18T14:17:11;7.57;;;2.47;;
73266;SDS011;61495;53.400;7.608;2023-09-18T14:19:37;6.47;;;2.78;;
73266;SDS011;61495;53.400;7.608;2023-09-18T14:22:05;5.82;;;2.80;;
73266;SDS011;61495;53.400;7.608;2023-09-18T14:24:32;5.22;;;2.58;;
73266;SDS011;61495;53.400;7.608;2023-09-18T14:27:02;5.32;;;2.63;;
73266;SDS011;61495;53.400;7.608;2023-09-18T14:29:29;5.43;;;2.28;;
73266;SDS011;61495;53.400;7.608;2023-09-18T14:32:04;4.28;;;2.22;;
73266;SDS011;61495;53.400;7.608;2023-09-18T14:34:30;3.72;;;2.15;;
73266;SDS011;61495;53.400;7.608;2023-09-18T14:36:58;6.13;;;3.00;;
73266;SDS011;61495;53.400;7.608;2023-09-18T14:39:24;6.28;;;3.15;;
73266;SDS011;61495;53.400;7.608;2023-09-18T14:41:49;5.82;;;2.80;;
73266;SDS011;61495;53.400;7.608;2023-09-18T14:44:15;7.63;;;3.53;;
73266;SDS011;61495;53.400;7.608;2023-09-18T14:46:40;6.13;;;2.90;;
73266;SDS011;61495;53.400;7.608;2023-09-18T14:49:06;7.60;;;2.63;;
73266;SDS011;61495;53.400;7.608;2023-09-18T14:51:32;5.75;;;2.33;;
73266;SDS011;61495;53.400;7.608;2023-09-18T14:53:59;6.15;;;2.80;;